Gentle Leader — C6WY9 — position and weather

sailwx.info

Track history (hours):
 
Tides and Currents Weather Stations Pressure Air Temp Water Temp Dewpoint Dewpoint Depression Visibility Wind Speed Wind Dir Waves Ship Positions

Gentle Leader

Last reported at 2016-Aug-17 14:19 UTC. Time now 2016-Aug-29 18:05 UTC.
Position N 34°38' E 140°19'.
Warning: this ship's position is 12 days out of date.

Length 200 m; draft 8.7 m.

Type: Cargo ship. MMSI: 311003300.

Date/timePositionNaut miles runAvg speedWind from/ knotsBaromVisibWave heightAir tempDewpointWater temp
2016-Aug-17 14:19N 34°38' E 140°19'1214.7
2016-Aug-17 13:31N 34°38' E 140°04'1614.7
2016-Aug-17 12:25N 34°38' E 139°45'66 5.8
2016-Aug-17 01:06N 35°02' E 138°31'0 0.0
2016-Aug-17 00:30N 35°02' E 138°31'54 3.1
2016-Aug-16 07:16N 35°02' E 139°37'23 8.4
2016-Aug-16 04:33N 35°24' E 139°43'6 6.1
2016-Aug-16 03:31N 35°30' E 139°46'0 0.0
2016-Aug-16 02:31N 35°30' E 139°46'0 0.0
2016-Aug-16 01:31N 35°30' E 139°46'0 0.0
2016-Aug-16 00:31N 35°30' E 139°46'0 0.0
2016-Aug-15 23:31N 35°30' E 139°46'0 0.0
2016-Aug-15 22:31N 35°30' E 139°46'0 0.0
2016-Aug-15 21:31N 35°30' E 139°46'0 0.0
2016-Aug-15 20:31N 35°30' E 139°46'0 0.0
2016-Aug-15 19:31N 35°30' E 139°46'0 0.0
2016-Aug-15 18:31N 35°30' E 139°46'0 0.0
2016-Aug-15 17:31N 35°30' E 139°46'0 0.0
2016-Aug-15 16:31N 35°30' E 139°46'0 0.0
2016-Aug-15 15:31N 35°30' E 139°46'0 0.0
2016-Aug-15 14:31N 35°30' E 139°46'0 0.0
2016-Aug-15 13:31N 35°30' E 139°46'0 0.0
2016-Aug-15 12:31N 35°30' E 139°46'0 0.0
2016-Aug-15 11:31N 35°30' E 139°46'0 0.0
2016-Aug-15 10:31N 35°30' E 139°46'0 0.0
2016-Aug-15 09:31N 35°30' E 139°46'0 0.0
2016-Aug-15 08:31N 35°30' E 139°46'0 0.0
2016-Aug-15 07:31N 35°30' E 139°46'0 0.0
2016-Aug-15 06:31N 35°30' E 139°46'0 0.0
2016-Aug-15 04:31N 35°30' E 139°46'0 0.0
2016-Aug-15 03:31N 35°30' E 139°46'0 0.0
2016-Aug-15 02:31N 35°30' E 139°46'0 0.0
2016-Aug-15 01:31N 35°30' E 139°46'0 0.0
2016-Aug-15 00:32N 35°30' E 139°46'0 0.0
2016-Aug-14 23:32N 35°30' E 139°46'0 0.0
2016-Aug-14 22:32N 35°30' E 139°46'0 0.0
2016-Aug-14 21:32N 35°30' E 139°46'0 0.0
2016-Aug-14 20:32N 35°30' E 139°46'0 0.0
2016-Aug-14 19:32N 35°30' E 139°46'0 0.0
2016-Aug-14 18:32N 35°30' E 139°46'0 0.0
2016-Aug-14 17:32N 35°30' E 139°46'0 0.0
2016-Aug-14 16:32N 35°30' E 139°46'0 0.0
2016-Aug-14 15:32N 35°30' E 139°46'0 0.0
2016-Aug-14 14:32N 35°30' E 139°46'0 0.0
2016-Aug-14 13:32N 35°30' E 139°46'0 0.0
2016-Aug-14 12:32N 35°30' E 139°46'0 0.0
2016-Aug-14 11:32N 35°30' E 139°46'0 0.0
2016-Aug-14 10:32N 35°30' E 139°46'0 0.0
2016-Aug-14 09:32N 35°30' E 139°46'0 0.0
2016-Aug-14 08:32N 35°30' E 139°46'0 0.0
2016-Aug-14 07:32N 35°30' E 139°46'0 0.0
2016-Aug-14 06:32N 35°30' E 139°46'0 0.0
2016-Aug-14 04:32N 35°30' E 139°46'0 0.0
2016-Aug-14 03:32N 35°30' E 139°46'0 0.0
2016-Aug-14 02:32N 35°30' E 139°46'0 0.0
2016-Aug-14 01:32N 35°30' E 139°46'0 0.0
2016-Aug-14 00:32N 35°30' E 139°46'2 1.6
2016-Aug-13 23:34N 35°28' E 139°47'1010.3
2016-Aug-13 22:33N 35°19' E 139°43'3 2.6
2016-Aug-13 21:33N 35°17' E 139°41'0 0.0
2016-Aug-13 20:33N 35°17' E 139°41'0 0.0
2016-Aug-13 19:33N 35°17' E 139°41'0 0.0
2016-Aug-13 18:33N 35°17' E 139°41'0 0.0
2016-Aug-13 17:30N 35°17' E 139°41'0 0.0
2016-Aug-13 16:30N 35°17' E 139°41'0 0.0
2016-Aug-13 15:33N 35°17' E 139°41'0 0.0
2016-Aug-13 14:30N 35°17' E 139°41'0 0.1
2016-Aug-13 13:33N 35°17' E 139°41'0 0.0
2016-Aug-13 12:30N 35°17' E 139°41'0 0.0
2016-Aug-13 11:33N 35°17' E 139°41'0 0.0
2016-Aug-13 10:33N 35°17' E 139°41'0 0.0
2016-Aug-13 09:33N 35°17' E 139°41'0 0.0
2016-Aug-13 08:33N 35°17' E 139°41'0 0.0
2016-Aug-13 07:33N 35°17' E 139°41'0 0.0
2016-Aug-13 06:33N 35°17' E 139°41'0 0.0
2016-Aug-13 05:33N 35°17' E 139°41'0 0.0
2016-Aug-13 04:33N 35°17' E 139°41'0 0.0
2016-Aug-13 03:33N 35°17' E 139°41'0 0.0
2016-Aug-13 02:24N 35°17' E 139°41'0 0.0
2016-Aug-13 01:33N 35°17' E 139°41'0 0.0
2016-Aug-13 00:33N 35°17' E 139°41'0 0.0
2016-Aug-12 23:33N 35°17' E 139°41'0 0.0
2016-Aug-12 22:33N 35°17' E 139°41'0 0.0
2016-Aug-12 21:33N 35°17' E 139°41'0 0.0
2016-Aug-12 20:30N 35°17' E 139°41'0 0.0
2016-Aug-12 19:33N 35°17' E 139°41'0 0.0
2016-Aug-12 18:33N 35°17' E 139°41'0 0.0
2016-Aug-12 17:30N 35°17' E 139°41'0 0.1
2016-Aug-12 16:33N 35°17' E 139°41'0 0.0
2016-Aug-12 15:33N 35°17' E 139°41'0 0.0
2016-Aug-12 14:33N 35°17' E 139°41'0 0.0
2016-Aug-12 13:33N 35°17' E 139°41'0 0.0
2016-Aug-12 12:33N 35°17' E 139°41'0 0.0
2016-Aug-12 11:33N 35°17' E 139°41'0 0.0
2016-Aug-12 10:30N 35°17' E 139°41'0 0.1
2016-Aug-12 09:33N 35°17' E 139°41'0 0.0
2016-Aug-12 08:33N 35°17' E 139°41'0 0.0
2016-Aug-12 07:33N 35°17' E 139°41'0 0.1
2016-Aug-12 06:33N 35°17' E 139°41'8 7.9
2016-Aug-12 05:33N 35°25' E 139°43'4 3.7
2016-Aug-12 04:32N 35°28' E 139°41'0 0.0
2016-Aug-12 03:32N 35°28' E 139°41'0 0.0
2016-Aug-12 02:32N 35°28' E 139°41'0 0.0
2016-Aug-12 01:32N 35°28' E 139°41'0 0.0
2016-Aug-12 00:32N 35°28' E 139°41'0 0.0
2016-Aug-11 23:32N 35°28' E 139°41'0 0.0
2016-Aug-11 22:32N 35°28' E 139°41'0 0.0
2016-Aug-11 21:32N 35°28' E 139°41'0 0.0
2016-Aug-11 20:32N 35°28' E 139°41'0 0.0
2016-Aug-11 19:32N 35°28' E 139°41'0 0.0
2016-Aug-11 18:32N 35°28' E 139°41'0 0.0
2016-Aug-11 17:32N 35°28' E 139°41'0 0.0
2016-Aug-11 16:32N 35°28' E 139°41'0 0.0
2016-Aug-11 15:32N 35°28' E 139°41'0 0.0
2016-Aug-11 14:32N 35°28' E 139°41'0 0.0
2016-Aug-11 13:32N 35°28' E 139°41'0 0.0
2016-Aug-11 12:32N 35°28' E 139°41'0 0.0
2016-Aug-11 11:32N 35°28' E 139°41'0 0.0
2016-Aug-11 10:32N 35°28' E 139°41'0 0.0
2016-Aug-11 09:32N 35°28' E 139°41'0 0.0
2016-Aug-11 08:32N 35°28' E 139°41'0 0.0
2016-Aug-11 07:32N 35°28' E 139°41'0 0.0
2016-Aug-11 06:32N 35°28' E 139°41'0 0.1
2016-Aug-11 05:34N 35°28' E 139°41'2 2.5
2016-Aug-11 04:34N 35°27' E 139°43'10 9.8
2016-Aug-11 03:34N 35°17' E 139°45'1110.8
2016-Aug-11 02:34N 35°06' E 139°46'  
Track history (hours):
 
Tides and Currents Weather Stations Pressure Air Temp Water Temp Dewpoint Dewpoint Depression Visibility Wind Speed Wind Dir Waves Ship Positions

Gentle Leader

Last reported at 2016-Aug-17 14:19 UTC. Time now 2016-Aug-29 18:05 UTC.
Position N 34°38' E 140°19'.
Warning: this ship's position is 12 days out of date.

Length 200 m; draft 8.7 m.

Type: Cargo ship. MMSI: 311003300.

Date/timePositionNaut miles runAvg speedWind from/ knotsBaromVisibWave heightAir tempDewpointWater temp
2016-Aug-17 14:19N 34°38' E 140°19'1214.7
2016-Aug-17 13:31N 34°38' E 140°04'1614.7
2016-Aug-17 12:25N 34°38' E 139°45'66 5.8
2016-Aug-17 01:06N 35°02' E 138°31'0 0.0
2016-Aug-17 00:30N 35°02' E 138°31'54 3.1
2016-Aug-16 07:16N 35°02' E 139°37'23 8.4
2016-Aug-16 04:33N 35°24' E 139°43'6 6.1
2016-Aug-16 03:31N 35°30' E 139°46'0 0.0
2016-Aug-16 02:31N 35°30' E 139°46'0 0.0
2016-Aug-16 01:31N 35°30' E 139°46'0 0.0
2016-Aug-16 00:31N 35°30' E 139°46'0 0.0
2016-Aug-15 23:31N 35°30' E 139°46'0 0.0
2016-Aug-15 22:31N 35°30' E 139°46'0 0.0
2016-Aug-15 21:31N 35°30' E 139°46'0 0.0
2016-Aug-15 20:31N 35°30' E 139°46'0 0.0
2016-Aug-15 19:31N 35°30' E 139°46'0 0.0
2016-Aug-15 18:31N 35°30' E 139°46'0 0.0
2016-Aug-15 17:31N 35°30' E 139°46'0 0.0
2016-Aug-15 16:31N 35°30' E 139°46'0 0.0
2016-Aug-15 15:31N 35°30' E 139°46'0 0.0
2016-Aug-15 14:31N 35°30' E 139°46'0 0.0
2016-Aug-15 13:31N 35°30' E 139°46'0 0.0
2016-Aug-15 12:31N 35°30' E 139°46'0 0.0
2016-Aug-15 11:31N 35°30' E 139°46'0 0.0
2016-Aug-15 10:31N 35°30' E 139°46'0 0.0
2016-Aug-15 09:31N 35°30' E 139°46'0 0.0
2016-Aug-15 08:31N 35°30' E 139°46'0 0.0
2016-Aug-15 07:31N 35°30' E 139°46'0 0.0
2016-Aug-15 06:31N 35°30' E 139°46'0 0.0
2016-Aug-15 04:31N 35°30' E 139°46'0 0.0
2016-Aug-15 03:31N 35°30' E 139°46'0 0.0
2016-Aug-15 02:31N 35°30' E 139°46'0 0.0
2016-Aug-15 01:31N 35°30' E 139°46'0 0.0
2016-Aug-15 00:32N 35°30' E 139°46'0 0.0
2016-Aug-14 23:32N 35°30' E 139°46'0 0.0
2016-Aug-14 22:32N 35°30' E 139°46'0 0.0
2016-Aug-14 21:32N 35°30' E 139°46'0 0.0
2016-Aug-14 20:32N 35°30' E 139°46'0 0.0
2016-Aug-14 19:32N 35°30' E 139°46'0 0.0
2016-Aug-14 18:32N 35°30' E 139°46'0 0.0
2016-Aug-14 17:32N 35°30' E 139°46'0 0.0
2016-Aug-14 16:32N 35°30' E 139°46'0 0.0
2016-Aug-14 15:32N 35°30' E 139°46'0 0.0
2016-Aug-14 14:32N 35°30' E 139°46'0 0.0
2016-Aug-14 13:32N 35°30' E 139°46'0 0.0
2016-Aug-14 12:32N 35°30' E 139°46'0 0.0
2016-Aug-14 11:32N 35°30' E 139°46'0 0.0
2016-Aug-14 10:32N 35°30' E 139°46'0 0.0
2016-Aug-14 09:32N 35°30' E 139°46'0 0.0
2016-Aug-14 08:32N 35°30' E 139°46'0 0.0
2016-Aug-14 07:32N 35°30' E 139°46'0 0.0
2016-Aug-14 06:32N 35°30' E 139°46'0 0.0
2016-Aug-14 04:32N 35°30' E 139°46'0 0.0
2016-Aug-14 03:32N 35°30' E 139°46'0 0.0
2016-Aug-14 02:32N 35°30' E 139°46'0 0.0
2016-Aug-14 01:32N 35°30' E 139°46'0 0.0
2016-Aug-14 00:32N 35°30' E 139°46'2 1.6
2016-Aug-13 23:34N 35°28' E 139°47'1010.3
2016-Aug-13 22:33N 35°19' E 139°43'3 2.6
2016-Aug-13 21:33N 35°17' E 139°41'0 0.0
2016-Aug-13 20:33N 35°17' E 139°41'0 0.0
2016-Aug-13 19:33N 35°17' E 139°41'0 0.0
2016-Aug-13 18:33N 35°17' E 139°41'0 0.0
2016-Aug-13 17:30N 35°17' E 139°41'0 0.0
2016-Aug-13 16:30N 35°17' E 139°41'0 0.0
2016-Aug-13 15:33N 35°17' E 139°41'0 0.0
2016-Aug-13 14:30N 35°17' E 139°41'0 0.1
2016-Aug-13 13:33N 35°17' E 139°41'0 0.0
2016-Aug-13 12:30N 35°17' E 139°41'0 0.0
2016-Aug-13 11:33N 35°17' E 139°41'0 0.0
2016-Aug-13 10:33N 35°17' E 139°41'0 0.0
2016-Aug-13 09:33N 35°17' E 139°41'0 0.0
2016-Aug-13 08:33N 35°17' E 139°41'0 0.0
2016-Aug-13 07:33N 35°17' E 139°41'0 0.0
2016-Aug-13 06:33N 35°17' E 139°41'0 0.0
2016-Aug-13 05:33N 35°17' E 139°41'0 0.0
2016-Aug-13 04:33N 35°17' E 139°41'0 0.0
2016-Aug-13 03:33N 35°17' E 139°41'0 0.0
2016-Aug-13 02:24N 35°17' E 139°41'0 0.0
2016-Aug-13 01:33N 35°17' E 139°41'0 0.0
2016-Aug-13 00:33N 35°17' E 139°41'0 0.0
2016-Aug-12 23:33N 35°17' E 139°41'0 0.0
2016-Aug-12 22:33N 35°17' E 139°41'0 0.0
2016-Aug-12 21:33N 35°17' E 139°41'0 0.0
2016-Aug-12 20:30N 35°17' E 139°41'0 0.0
2016-Aug-12 19:33N 35°17' E 139°41'0 0.0
2016-Aug-12 18:33N 35°17' E 139°41'0 0.0
2016-Aug-12 17:30N 35°17' E 139°41'0 0.1
2016-Aug-12 16:33N 35°17' E 139°41'0 0.0
2016-Aug-12 15:33N 35°17' E 139°41'0 0.0
2016-Aug-12 14:33N 35°17' E 139°41'0 0.0
2016-Aug-12 13:33N 35°17' E 139°41'0 0.0
2016-Aug-12 12:33N 35°17' E 139°41'0 0.0
2016-Aug-12 11:33N 35°17' E 139°41'0 0.0
2016-Aug-12 10:30N 35°17' E 139°41'0 0.1
2016-Aug-12 09:33N 35°17' E 139°41'0 0.0
2016-Aug-12 08:33N 35°17' E 139°41'0 0.0
2016-Aug-12 07:33N 35°17' E 139°41'0 0.1
2016-Aug-12 06:33N 35°17' E 139°41'8 7.9
2016-Aug-12 05:33N 35°25' E 139°43'4 3.7
2016-Aug-12 04:32N 35°28' E 139°41'0 0.0
2016-Aug-12 03:32N 35°28' E 139°41'0 0.0
2016-Aug-12 02:32N 35°28' E 139°41'0 0.0
2016-Aug-12 01:32N 35°28' E 139°41'0 0.0
2016-Aug-12 00:32N 35°28' E 139°41'0 0.0
2016-Aug-11 23:32N 35°28' E 139°41'0 0.0
2016-Aug-11 22:32N 35°28' E 139°41'0 0.0
2016-Aug-11 21:32N 35°28' E 139°41'0 0.0
2016-Aug-11 20:32N 35°28' E 139°41'0 0.0
2016-Aug-11 19:32N 35°28' E 139°41'0 0.0
2016-Aug-11 18:32N 35°28' E 139°41'0 0.0
2016-Aug-11 17:32N 35°28' E 139°41'0 0.0
2016-Aug-11 16:32N 35°28' E 139°41'0 0.0
2016-Aug-11 15:32N 35°28' E 139°41'0 0.0
2016-Aug-11 14:32N 35°28' E 139°41'0 0.0
2016-Aug-11 13:32N 35°28' E 139°41'0 0.0
2016-Aug-11 12:32N 35°28' E 139°41'0 0.0
2016-Aug-11 11:32N 35°28' E 139°41'0 0.0
2016-Aug-11 10:32N 35°28' E 139°41'0 0.0
2016-Aug-11 09:32N 35°28' E 139°41'0 0.0
2016-Aug-11 08:32N 35°28' E 139°41'0 0.0
2016-Aug-11 07:32N 35°28' E 139°41'0 0.0
2016-Aug-11 06:32N 35°28' E 139°41'0 0.1
2016-Aug-11 05:34N 35°28' E 139°41'2 2.5
2016-Aug-11 04:34N 35°27' E 139°43'10 9.8
2016-Aug-11 03:34N 35°17' E 139°45'1110.8
2016-Aug-11 02:34N 35°06' E 139°46'  

Dump ship's entire track history